Terminal Aerodrome Forecast
Issued by NWS Tulsa, OK

Home | Current Version | Previous Version | Text Only | Print | Product List | Glossary On
Versions: 1 2 3 4 5 6 7 8 9 10 11 12 13 14 15
127
FTUS44 KTSA 130520
TAFTUL
TAF
KTUL 130520Z 1306/1406 03009KT P6SM BKN100
     FM131100 04010KT P6SM SCT200
     FM132300 13009KT P6SM SCT030 BKN250
     FM140200 13009KT P6SM BKN025 OVC100=

USA.gov is the U.S. government's official web portal to all federal, state and local government web resources and services.